sensor_id;sensor_type;location;lat;lon;timestamp;P1;durP1;ratioP1;P2;durP2;ratioP2
67090;SDS011;54007;55.818;49.058;2022-11-25T10:00:24;39.08;;;13.20;;
67090;SDS011;54007;55.818;49.058;2022-11-25T10:03:11;37.25;;;13.90;;
67090;SDS011;54007;55.818;49.058;2022-11-25T10:05:49;34.03;;;13.72;;
67090;SDS011;54007;55.818;49.058;2022-11-25T10:08:16;36.93;;;13.00;;
67090;SDS011;54007;55.818;49.058;2022-11-25T10:10:45;36.00;;;13.98;;
67090;SDS011;54007;55.818;49.058;2022-11-25T10:13:07;34.23;;;13.83;;
67090;SDS011;54007;55.818;49.058;2022-11-25T10:15:33;36.58;;;13.25;;
67090;SDS011;54007;55.818;49.058;2022-11-25T10:20:30;36.13;;;12.80;;
67090;SDS011;54007;55.818;49.058;2022-11-25T10:23:09;35.50;;;13.50;;
67090;SDS011;54007;55.818;49.058;2022-11-25T10:25:36;36.90;;;12.68;;
67090;SDS011;54007;55.818;49.058;2022-11-25T10:28:00;32.27;;;12.30;;
67090;SDS011;54007;55.818;49.058;2022-11-25T10:30:45;33.90;;;13.98;;
67090;SDS011;54007;55.818;49.058;2022-11-25T10:33:13;34.78;;;12.78;;
67090;SDS011;54007;55.818;49.058;2022-11-25T10:35:37;33.30;;;13.63;;
67090;SDS011;54007;55.818;49.058;2022-11-25T10:38:01;37.00;;;13.62;;
67090;SDS011;54007;55.818;49.058;2022-11-25T10:40:26;34.83;;;13.32;;
67090;SDS011;54007;55.818;49.058;2022-11-25T10:42:52;34.33;;;12.95;;
67090;SDS011;54007;55.818;49.058;2022-11-25T10:45:19;33.55;;;13.53;;
67090;SDS011;54007;55.818;49.058;2022-11-25T10:52:49;36.65;;;13.70;;
67090;SDS011;54007;55.818;49.058;2022-11-25T10:55:18;35.50;;;13.00;;
67090;SDS011;54007;55.818;49.058;2022-11-25T10:57:42;39.88;;;12.95;;
67090;SDS011;54007;55.818;49.058;2022-11-25T11:00:23;37.17;;;14.20;;
67090;SDS011;54007;55.818;49.058;2022-11-25T11:05:21;36.30;;;14.05;;
67090;SDS011;54007;55.818;49.058;2022-11-25T11:07:30;35.15;;;12.47;;
67090;SDS011;54007;55.818;49.058;2022-11-25T11:10:02;36.27;;;13.93;;
67090;SDS011;54007;55.818;49.058;2022-11-25T11:12:21;40.90;;;14.53;;
67090;SDS011;54007;55.818;49.058;2022-11-25T11:15:12;39.63;;;14.63;;
67090;SDS011;54007;55.818;49.058;2022-11-25T11:17:34;38.65;;;13.55;;
67090;SDS011;54007;55.818;49.058;2022-11-25T11:20:12;36.25;;;14.07;;
67090;SDS011;54007;55.818;49.058;2022-11-25T11:22:28;43.00;;;15.58;;
67090;SDS011;54007;55.818;49.058;2022-11-25T11:27:39;37.30;;;15.10;;
67090;SDS011;54007;55.818;49.058;2022-11-25T11:30:14;40.70;;;15.20;;
67090;SDS011;54007;55.818;49.058;2022-11-25T11:32:30;33.78;;;13.95;;
67090;SDS011;54007;55.818;49.058;2022-11-25T11:35:00;37.65;;;13.78;;
67090;SDS011;54007;55.818;49.058;2022-11-25T11:39:57;36.15;;;14.90;;
67090;SDS011;54007;55.818;49.058;2022-11-25T11:42:26;36.45;;;14.68;;
67090;SDS011;54007;55.818;49.058;2022-11-25T11:44:55;40.27;;;14.43;;
67090;SDS011;54007;55.818;49.058;2022-11-25T11:49:52;36.48;;;14.45;;
67090;SDS011;54007;55.818;49.058;2022-11-25T11:55:13;39.63;;;14.63;;
67090;SDS011;54007;55.818;49.058;2022-11-25T12:00:07;36.87;;;14.47;;
67090;SDS011;54007;55.818;49.058;2022-11-25T12:02:37;40.92;;;14.87;;
67090;SDS011;54007;55.818;49.058;2022-11-25T12:07:36;45.50;;;14.67;;
67090;SDS011;54007;55.818;49.058;2022-11-25T12:10:04;38.95;;;13.83;;
67090;SDS011;54007;55.818;49.058;2022-11-25T12:12:31;43.48;;;15.03;;
67090;SDS011;54007;55.818;49.058;2022-11-25T12:14:54;39.80;;;13.93;;
67090;SDS011;54007;55.818;49.058;2022-11-25T12:17:26;46.75;;;16.30;;
67090;SDS011;54007;55.818;49.058;2022-11-25T12:22:31;35.75;;;14.40;;
67090;SDS011;54007;55.818;49.058;2022-11-25T12:25:07;38.42;;;15.00;;
67090;SDS011;54007;55.818;49.058;2022-11-25T12:27:39;42.48;;;13.75;;
67090;SDS011;54007;55.818;49.058;2022-11-25T12:30:10;40.60;;;15.77;;
67090;SDS011;54007;55.818;49.058;2022-11-25T12:35:32;43.33;;;15.18;;
67090;SDS011;54007;55.818;49.058;2022-11-25T12:40:36;41.10;;;15.35;;
67090;SDS011;54007;55.818;49.058;2022-11-25T12:43:03;43.40;;;15.23;;
67090;SDS011;54007;55.818;49.058;2022-11-25T12:45:25;46.67;;;15.50;;
67090;SDS011;54007;55.818;49.058;2022-11-25T12:47:51;41.28;;;14.87;;
67090;SDS011;54007;55.818;49.058;2022-11-25T12:50:18;42.55;;;14.68;;
67090;SDS011;54007;55.818;49.058;2022-11-25T12:52:51;38.63;;;15.33;;
67090;SDS011;54007;55.818;49.058;2022-11-25T12:55:10;41.58;;;15.53;;
67090;SDS011;54007;55.818;49.058;2022-11-25T13:00:02;42.35;;;14.73;;
67090;SDS011;54007;55.818;49.058;2022-11-25T13:04:55;35.80;;;14.03;;
67090;SDS011;54007;55.818;49.058;2022-11-25T13:07:22;36.93;;;14.78;;
67090;SDS011;54007;55.818;49.058;2022-11-25T13:09:54;34.67;;;13.48;;
67090;SDS011;54007;55.818;49.058;2022-11-25T13:15:15;47.80;;;15.70;;
67090;SDS011;54007;55.818;49.058;2022-11-25T13:17:38;43.58;;;15.95;;
67090;SDS011;54007;55.818;49.058;2022-11-25T13:22:59;40.48;;;14.63;;
67090;SDS011;54007;55.818;49.058;2022-11-25T13:25:25;39.00;;;14.83;;
67090;SDS011;54007;55.818;49.058;2022-11-25T13:30:42;35.05;;;13.98;;
67090;SDS011;54007;55.818;49.058;2022-11-25T13:35:37;39.80;;;14.47;;
67090;SDS011;54007;55.818;49.058;2022-11-25T13:38:05;37.55;;;14.33;;
67090;SDS011;54007;55.818;49.058;2022-11-25T13:40:37;42.38;;;14.18;;
67090;SDS011;54007;55.818;49.058;2022-11-25T13:43:03;39.05;;;13.88;;
67090;SDS011;54007;55.818;49.058;2022-11-25T13:45:33;37.73;;;14.20;;
67090;SDS011;54007;55.818;49.058;2022-11-25T13:48:05;44.30;;;15.08;;
67090;SDS011;54007;55.818;49.058;2022-11-25T13:50:30;40.60;;;14.43;;
67090;SDS011;54007;55.818;49.058;2022-11-25T13:53:06;37.58;;;14.33;;
67090;SDS011;54007;55.818;49.058;2022-11-25T13:55:35;36.23;;;13.93;;
67090;SDS011;54007;55.818;49.058;2022-11-25T14:18:40;44.13;;;15.68;;
67090;SDS011;54007;55.818;49.058;2022-11-25T14:26:24;45.45;;;15.43;;
67090;SDS011;54007;55.818;49.058;2022-11-25T14:28:53;45.70;;;16.57;;
67090;SDS011;54007;55.818;49.058;2022-11-25T14:31:14;54.50;;;17.10;;
67090;SDS011;54007;55.818;49.058;2022-11-25T14:36:16;42.80;;;15.73;;
67090;SDS011;54007;55.818;49.058;2022-11-25T14:38:48;46.42;;;16.70;;
67090;SDS011;54007;55.818;49.058;2022-11-25T14:41:15;50.38;;;17.12;;
67090;SDS011;54007;55.818;49.058;2022-11-25T14:43:42;56.10;;;19.50;;
67090;SDS011;54007;55.818;49.058;2022-11-25T14:46:24;52.15;;;17.57;;
67090;SDS011;54007;55.818;49.058;2022-11-25T14:48:29;53.28;;;19.32;;
67090;SDS011;54007;55.818;49.058;2022-11-25T14:50:58;52.73;;;18.37;;
67090;SDS011;54007;55.818;49.058;2022-11-25T14:53:21;51.98;;;19.27;;
67090;SDS011;54007;55.818;49.058;2022-11-25T14:55:46;50.73;;;18.03;;
67090;SDS011;54007;55.818;49.058;2022-11-25T14:58:12;55.98;;;18.98;;
67090;SDS011;54007;55.818;49.058;2022-11-25T15:00:48;55.83;;;18.48;;
67090;SDS011;54007;55.818;49.058;2022-11-25T15:03:04;48.60;;;17.90;;
67090;SDS011;54007;55.818;49.058;2022-11-25T15:05:31;51.02;;;18.45;;
67090;SDS011;54007;55.818;49.058;2022-11-25T15:10:33;54.18;;;18.27;;
67090;SDS011;54007;55.818;49.058;2022-11-25T15:12:58;54.98;;;18.45;;
67090;SDS011;54007;55.818;49.058;2022-11-25T15:15:25;56.63;;;18.98;;
67090;SDS011;54007;55.818;49.058;2022-11-25T15:17:49;56.65;;;18.82;;
67090;SDS011;54007;55.818;49.058;2022-11-25T15:20:15;64.55;;;21.50;;
67090;SDS011;54007;55.818;49.058;2022-11-25T15:22:51;49.00;;;18.10;;
67090;SDS011;54007;55.818;49.058;2022-11-25T15:25:16;55.92;;;19.07;;
67090;SDS011;54007;55.818;49.058;2022-11-25T15:27:43;54.48;;;19.67;;
67090;SDS011;54007;55.818;49.058;2022-11-25T15:30:20;58.00;;;18.87;;
67090;SDS011;54007;55.818;49.058;2022-11-25T15:32:45;58.48;;;18.15;;
67090;SDS011;54007;55.818;49.058;2022-11-25T15:35:21;49.18;;;18.00;;
67090;SDS011;54007;55.818;49.058;2022-11-25T15:37:40;62.55;;;20.08;;
67090;SDS011;54007;55.818;49.058;2022-11-25T15:42:49;50.92;;;19.45;;
67090;SDS011;54007;55.818;49.058;2022-11-25T15:45:18;54.67;;;20.17;;
67090;SDS011;54007;55.818;49.058;2022-11-25T15:47:43;51.73;;;20.25;;
67090;SDS011;54007;55.818;49.058;2022-11-25T15:50:21;52.90;;;19.47;;
67090;SDS011;54007;55.818;49.058;2022-11-25T15:52:46;50.78;;;19.92;;
67090;SDS011;54007;55.818;49.058;2022-11-25T15:55:19;55.23;;;19.35;;
67090;SDS011;54007;55.818;49.058;2022-11-25T15:57:43;50.60;;;19.27;;
67090;SDS011;54007;55.818;49.058;2022-11-25T16:00:12;54.53;;;19.62;;
67090;SDS011;54007;55.818;49.058;2022-11-25T16:08:00;53.20;;;20.27;;
67090;SDS011;54007;55.818;49.058;2022-11-25T16:10:15;58.38;;;20.80;;
67090;SDS011;54007;55.818;49.058;2022-11-25T16:12:29;54.77;;;20.27;;
67090;SDS011;54007;55.818;49.058;2022-11-25T16:14:55;54.60;;;20.08;;
67090;SDS011;54007;55.818;49.058;2022-11-25T16:17:21;54.65;;;19.75;;
67090;SDS011;54007;55.818;49.058;2022-11-25T16:19:47;52.77;;;19.83;;
67090;SDS011;54007;55.818;49.058;2022-11-25T16:22:16;54.67;;;19.20;;
67090;SDS011;54007;55.818;49.058;2022-11-25T16:24:49;55.98;;;20.25;;
67090;SDS011;54007;55.818;49.058;2022-11-25T16:27:21;52.50;;;19.77;;
67090;SDS011;54007;55.818;49.058;2022-11-25T16:29:47;54.27;;;20.25;;
67090;SDS011;54007;55.818;49.058;2022-11-25T16:32:15;54.63;;;19.77;;
67090;SDS011;54007;55.818;49.058;2022-11-25T16:34:38;54.80;;;19.20;;
67090;SDS011;54007;55.818;49.058;2022-11-25T16:37:03;83.80;;;29.65;;
67090;SDS011;54007;55.818;49.058;2022-11-25T16:39:29;55.87;;;21.10;;
67090;SDS011;54007;55.818;49.058;2022-11-25T16:41:56;53.58;;;18.00;;
67090;SDS011;54007;55.818;49.058;2022-11-25T16:44:21;74.32;;;24.35;;
67090;SDS011;54007;55.818;49.058;2022-11-25T16:46:47;56.20;;;20.27;;
67090;SDS011;54007;55.818;49.058;2022-11-25T16:49:13;60.15;;;20.50;;
67090;SDS011;54007;55.818;49.058;2022-11-25T16:51:38;51.57;;;18.67;;
67090;SDS011;54007;55.818;49.058;2022-11-25T16:54:04;54.65;;;19.05;;
67090;SDS011;54007;55.818;49.058;2022-11-25T16:56:30;55.35;;;19.17;;
67090;SDS011;54007;55.818;49.058;2022-11-25T16:58:56;53.60;;;19.30;;
67090;SDS011;54007;55.818;49.058;2022-11-25T17:01:23;56.08;;;20.97;;
67090;SDS011;54007;55.818;49.058;2022-11-25T17:03:48;58.70;;;20.10;;
67090;SDS011;54007;55.818;49.058;2022-11-25T17:06:20;48.40;;;18.52;;
67090;SDS011;54007;55.818;49.058;2022-11-25T17:08:42;56.55;;;19.23;;
67090;SDS011;54007;55.818;49.058;2022-11-25T17:11:10;53.90;;;18.03;;
67090;SDS011;54007;55.818;49.058;2022-11-25T17:13:34;51.90;;;18.48;;
67090;SDS011;54007;55.818;49.058;2022-11-25T17:16:00;56.85;;;18.87;;
67090;SDS011;54007;55.818;49.058;2022-11-25T17:18:25;62.05;;;19.87;;
67090;SDS011;54007;55.818;49.058;2022-11-25T17:20:51;54.60;;;19.45;;
67090;SDS011;54007;55.818;49.058;2022-11-25T17:23:17;53.90;;;20.50;;
67090;SDS011;54007;55.818;49.058;2022-11-25T17:25:46;51.53;;;19.45;;
67090;SDS011;54007;55.818;49.058;2022-11-25T17:28:15;53.95;;;20.10;;
67090;SDS011;54007;55.818;49.058;2022-11-25T17:30:40;52.83;;;19.33;;
67090;SDS011;54007;55.818;49.058;2022-11-25T17:33:06;54.13;;;19.32;;
67090;SDS011;54007;55.818;49.058;2022-11-25T17:35:32;53.25;;;19.50;;
67090;SDS011;54007;55.818;49.058;2022-11-25T17:37:58;51.07;;;19.90;;
67090;SDS011;54007;55.818;49.058;2022-11-25T17:40:23;56.65;;;21.57;;
67090;SDS011;54007;55.818;49.058;2022-11-25T17:42:53;55.97;;;20.50;;
67090;SDS011;54007;55.818;49.058;2022-11-25T17:45:23;57.23;;;19.45;;
67090;SDS011;54007;55.818;49.058;2022-11-25T17:47:49;52.40;;;19.12;;
67090;SDS011;54007;55.818;49.058;2022-11-25T17:50:17;60.80;;;21.63;;
67090;SDS011;54007;55.818;49.058;2022-11-25T17:52:41;56.08;;;19.57;;
67090;SDS011;54007;55.818;49.058;2022-11-25T17:55:06;58.90;;;20.50;;
67090;SDS011;54007;55.818;49.058;2022-11-25T17:57:32;57.48;;;20.35;;
67090;SDS011;54007;55.818;49.058;2022-11-25T17:59:58;56.18;;;19.95;;
67090;SDS011;54007;55.818;49.058;2022-11-25T18:02:24;55.60;;;20.07;;
67090;SDS011;54007;55.818;49.058;2022-11-25T18:04:50;61.50;;;21.23;;
67090;SDS011;54007;55.818;49.058;2022-11-25T19:24:32;55.78;;;18.73;;
67090;SDS011;54007;55.818;49.058;2022-11-25T19:27:04;56.68;;;20.02;;
67090;SDS011;54007;55.818;49.058;2022-11-25T19:29:34;59.27;;;19.90;;
67090;SDS011;54007;55.818;49.058;2022-11-25T19:31:56;56.18;;;19.42;;
67090;SDS011;54007;55.818;49.058;2022-11-25T19:34:26;54.15;;;18.98;;
67090;SDS011;54007;55.818;49.058;2022-11-25T19:36:48;58.63;;;19.82;;
67090;SDS011;54007;55.818;49.058;2022-11-25T19:39:14;52.40;;;19.03;;
67090;SDS011;54007;55.818;49.058;2022-11-25T19:41:39;52.62;;;19.77;;
67090;SDS011;54007;55.818;49.058;2022-11-25T19:44:05;54.95;;;20.45;;
67090;SDS011;54007;55.818;49.058;2022-11-25T19:46:31;54.60;;;19.40;;
67090;SDS011;54007;55.818;49.058;2022-11-25T19:48:57;56.28;;;20.12;;
67090;SDS011;54007;55.818;49.058;2022-11-25T19:51:23;54.07;;;20.00;;
67090;SDS011;54007;55.818;49.058;2022-11-25T19:53:48;49.77;;;18.87;;
67090;SDS011;54007;55.818;49.058;2022-11-25T19:56:18;53.42;;;18.40;;
67090;SDS011;54007;55.818;49.058;2022-11-25T19:58:43;53.78;;;18.90;;
67090;SDS011;54007;55.818;49.058;2022-11-25T20:01:10;47.85;;;17.45;;
67090;SDS011;54007;55.818;49.058;2022-11-25T20:03:35;54.35;;;19.17;;
67090;SDS011;54007;55.818;49.058;2022-11-25T20:06:01;54.48;;;20.30;;
67090;SDS011;54007;55.818;49.058;2022-11-25T20:08:27;63.92;;;21.15;;
67090;SDS011;54007;55.818;49.058;2022-11-25T20:10:53;57.97;;;19.80;;
67090;SDS011;54007;55.818;49.058;2022-11-25T20:13:18;47.67;;;18.50;;
67090;SDS011;54007;55.818;49.058;2022-11-25T20:15:44;53.08;;;19.17;;
67090;SDS011;54007;55.818;49.058;2022-11-25T20:18:12;52.78;;;19.15;;
67090;SDS011;54007;55.818;49.058;2022-11-25T20:23:12;53.85;;;19.25;;
67090;SDS011;54007;55.818;49.058;2022-11-25T20:25:35;58.68;;;18.95;;
67090;SDS011;54007;55.818;49.058;2022-11-25T20:27:59;51.98;;;19.27;;
67090;SDS011;54007;55.818;49.058;2022-11-25T20:30:26;53.87;;;18.17;;
67090;SDS011;54007;55.818;49.058;2022-11-25T20:32:51;51.80;;;18.25;;
67090;SDS011;54007;55.818;49.058;2022-11-25T20:35:18;51.73;;;19.07;;
67090;SDS011;54007;55.818;49.058;2022-11-25T20:37:43;50.80;;;18.93;;
67090;SDS011;54007;55.818;49.058;2022-11-25T20:40:16;51.45;;;18.73;;
67090;SDS011;54007;55.818;49.058;2022-11-25T20:42:41;52.62;;;18.45;;
67090;SDS011;54007;55.818;49.058;2022-11-25T20:45:14;49.50;;;19.00;;
67090;SDS011;54007;55.818;49.058;2022-11-25T20:47:39;52.45;;;17.85;;
67090;SDS011;54007;55.818;49.058;2022-11-25T20:50:05;50.80;;;17.75;;
67090;SDS011;54007;55.818;49.058;2022-11-25T20:52:31;52.13;;;18.37;;
67090;SDS011;54007;55.818;49.058;2022-11-25T20:54:56;51.00;;;18.65;;
67090;SDS011;54007;55.818;49.058;2022-11-25T20:57:22;50.92;;;18.30;;
67090;SDS011;54007;55.818;49.058;2022-11-25T20:59:48;51.03;;;18.30;;
67090;SDS011;54007;55.818;49.058;2022-11-25T21:02:14;47.23;;;17.85;;
67090;SDS011;54007;55.818;49.058;2022-11-25T21:04:40;55.60;;;19.87;;
67090;SDS011;54007;55.818;49.058;2022-11-25T21:07:08;54.27;;;18.05;;
67090;SDS011;54007;55.818;49.058;2022-11-25T21:09:32;54.75;;;19.25;;
67090;SDS011;54007;55.818;49.058;2022-11-25T21:11:57;52.53;;;18.70;;
67090;SDS011;54007;55.818;49.058;2022-11-25T21:14:23;47.75;;;18.25;;
67090;SDS011;54007;55.818;49.058;2022-11-25T21:16:49;47.62;;;17.77;;
67090;SDS011;54007;55.818;49.058;2022-11-25T21:19:15;51.27;;;17.93;;
67090;SDS011;54007;55.818;49.058;2022-11-25T21:21:41;50.03;;;18.25;;
67090;SDS011;54007;55.818;49.058;2022-11-25T21:24:15;52.97;;;18.20;;
67090;SDS011;54007;55.818;49.058;2022-11-25T21:26:38;52.43;;;18.57;;
67090;SDS011;54007;55.818;49.058;2022-11-25T21:29:04;46.02;;;18.07;;
67090;SDS011;54007;55.818;49.058;2022-11-25T21:31:30;52.27;;;19.27;;
67090;SDS011;54007;55.818;49.058;2022-11-25T21:33:56;51.77;;;19.15;;
67090;SDS011;54007;55.818;49.058;2022-11-25T21:36:22;52.23;;;19.10;;
67090;SDS011;54007;55.818;49.058;2022-11-25T21:38:48;52.05;;;18.50;;
67090;SDS011;54007;55.818;49.058;2022-11-25T21:41:13;51.37;;;18.70;;
67090;SDS011;54007;55.818;49.058;2022-11-25T21:43:44;55.63;;;18.37;;
67090;SDS011;54007;55.818;49.058;2022-11-25T21:46:06;49.85;;;18.37;;
67090;SDS011;54007;55.818;49.058;2022-11-25T21:48:31;55.55;;;19.85;;
67090;SDS011;54007;55.818;49.058;2022-11-25T21:50:57;54.10;;;19.40;;
67090;SDS011;54007;55.818;49.058;2022-11-25T21:53:23;48.78;;;18.52;;
67090;SDS011;54007;55.818;49.058;2022-11-25T21:55:49;49.00;;;19.43;;
67090;SDS011;54007;55.818;49.058;2022-11-25T21:58:15;50.65;;;19.32;;
67090;SDS011;54007;55.818;49.058;2022-11-25T22:00:40;59.67;;;20.10;;
67090;SDS011;54007;55.818;49.058;2022-11-25T22:03:16;52.10;;;18.63;;
67090;SDS011;54007;55.818;49.058;2022-11-25T22:05:41;53.40;;;17.82;;
67090;SDS011;54007;55.818;49.058;2022-11-25T22:08:07;53.68;;;18.65;;
67090;SDS011;54007;55.818;49.058;2022-11-25T22:10:33;57.73;;;18.67;;
67090;SDS011;54007;55.818;49.058;2022-11-25T22:12:59;56.70;;;19.70;;
67090;SDS011;54007;55.818;49.058;2022-11-25T22:15:24;53.00;;;18.87;;
67090;SDS011;54007;55.818;49.058;2022-11-25T22:17:52;51.37;;;19.12;;
67090;SDS011;54007;55.818;49.058;2022-11-25T22:20:24;50.43;;;18.80;;
67090;SDS011;54007;55.818;49.058;2022-11-25T22:22:48;55.17;;;19.73;;
67090;SDS011;54007;55.818;49.058;2022-11-25T22:25:14;50.25;;;18.57;;
67090;SDS011;54007;55.818;49.058;2022-11-25T22:27:40;50.73;;;19.35;;
67090;SDS011;54007;55.818;49.058;2022-11-25T22:30:06;57.25;;;20.25;;
67090;SDS011;54007;55.818;49.058;2022-11-25T22:32:31;52.80;;;19.40;;
67090;SDS011;54007;55.818;49.058;2022-11-25T22:34:57;53.33;;;19.50;;
67090;SDS011;54007;55.818;49.058;2022-11-25T22:37:23;58.30;;;20.17;;
67090;SDS011;54007;55.818;49.058;2022-11-25T22:39:49;56.92;;;19.87;;
67090;SDS011;54007;55.818;49.058;2022-11-25T22:42:28;57.03;;;19.30;;
67090;SDS011;54007;55.818;49.058;2022-11-25T22:44:53;52.48;;;19.07;;
67090;SDS011;54007;55.818;49.058;2022-11-25T22:47:26;59.85;;;19.77;;
67090;SDS011;54007;55.818;49.058;2022-11-25T22:49:48;57.20;;;20.63;;
67090;SDS011;54007;55.818;49.058;2022-11-25T22:52:29;54.13;;;20.05;;
67090;SDS011;54007;55.818;49.058;2022-11-25T22:54:51;54.08;;;20.20;;
67090;SDS011;54007;55.818;49.058;2022-11-25T22:57:17;60.73;;;19.63;;
67090;SDS011;54007;55.818;49.058;2022-11-25T22:59:43;54.60;;;19.65;;
67090;SDS011;54007;55.818;49.058;2022-11-25T23:02:18;58.10;;;19.60;;
67090;SDS011;54007;55.818;49.058;2022-11-25T23:04:40;57.15;;;19.65;;
67090;SDS011;54007;55.818;49.058;2022-11-25T23:07:10;54.42;;;19.60;;
67090;SDS011;54007;55.818;49.058;2022-11-25T23:09:35;55.17;;;19.02;;
67090;SDS011;54007;55.818;49.058;2022-11-25T23:12:01;47.93;;;19.10;;
67090;SDS011;54007;55.818;49.058;2022-11-25T23:14:27;57.20;;;19.77;;
67090;SDS011;54007;55.818;49.058;2022-11-25T23:16:53;53.55;;;20.17;;
67090;SDS011;54007;55.818;49.058;2022-11-25T23:19:25;55.05;;;18.82;;
67090;SDS011;54007;55.818;49.058;2022-11-25T23:21:51;57.48;;;20.37;;
67090;SDS011;54007;55.818;49.058;2022-11-25T23:24:16;53.58;;;19.05;;
67090;SDS011;54007;55.818;49.058;2022-11-25T23:26:42;56.23;;;19.37;;
67090;SDS011;54007;55.818;49.058;2022-11-25T23:29:08;59.90;;;20.00;;
67090;SDS011;54007;55.818;49.058;2022-11-25T23:31:35;56.93;;;19.70;;
67090;SDS011;54007;55.818;49.058;2022-11-25T23:34:00;56.90;;;18.15;;
67090;SDS011;54007;55.818;49.058;2022-11-25T23:36:27;57.70;;;20.25;;
67090;SDS011;54007;55.818;49.058;2022-11-25T23:38:55;56.30;;;20.07;;
67090;SDS011;54007;55.818;49.058;2022-11-25T23:41:19;54.70;;;20.37;;
67090;SDS011;54007;55.818;49.058;2022-11-25T23:43:47;61.10;;;19.43;;
67090;SDS011;54007;55.818;49.058;2022-11-25T23:46:13;50.10;;;19.07;;
67090;SDS011;54007;55.818;49.058;2022-11-25T23:48:39;57.13;;;20.57;;
67090;SDS011;54007;55.818;49.058;2022-11-25T23:51:05;55.77;;;20.43;;
67090;SDS011;54007;55.818;49.058;2022-11-25T23:53:31;58.23;;;18.95;;
67090;SDS011;54007;55.818;49.058;2022-11-25T23:55:56;52.75;;;19.70;;
67090;SDS011;54007;55.818;49.058;2022-11-25T23:58:22;54.75;;;19.17;;
